Time;durP1;ratioP1;P1;durP2;ratioP2;P2;SDS_P1;SDS_P2;PMS_P1;PMS_P2;Temp;Humidity;BMP_temperature;BMP_pressure;BME280_temperature;BME280_humidity;BME280_pressure;Samples;Min_cycle;Max_cycle;Signal;HPM_P1;HPM_P2
2021/01/06 00:00:42;;;;;;;18.60;10.63;;;;;;;;;;4912241;29;20226;-76
2021/01/06 00:03:09;;;;;;;19.33;10.48;;;;;;;;;;4931031;29;20223;-76
2021/01/06 00:05:36;;;;;;;19.23;10.75;;;;;;;;;;4932543;29;20218;-77
2021/01/06 00:08:03;;;;;;;17.45;10.23;;;;;;;;;;4932350;29;20206;-76
2021/01/06 00:10:30;;;;;;;18.50;11.02;;;;;;;;;;4932250;29;20294;-75
2021/01/06 00:12:57;;;;;;;16.27;10.70;;;;;;;;;;4934508;29;20279;-76
2021/01/06 00:15:26;;;;;;;13.02;9.55;;;;;;;;;;4917839;29;20276;-77
2021/01/06 00:17:53;;;;;;;15.05;8.73;;;;;;;;;;4934733;29;20630;-77
2021/01/06 00:20:21;;;;;;;16.08;9.57;;;;;;;;;;4932668;29;20289;-77
2021/01/06 00:22:48;;;;;;;17.77;9.80;;;;;;;;;;4928833;29;20219;-78
2021/01/06 00:25:17;;;;;;;16.27;9.50;;;;;;;;;;4931217;29;20238;-78
2021/01/06 00:27:44;;;;;;;16.25;10.27;;;;;;;;;;4932215;29;20218;-76
2021/01/06 00:30:13;;;;;;;15.25;9.57;;;;;;;;;;4932435;29;20209;-77
2021/01/06 00:32:40;;;;;;;17.58;9.98;;;;;;;;;;4931961;29;20338;-78
2021/01/06 00:35:08;;;;;;;15.65;9.88;;;;;;;;;;4934579;29;20294;-77
2021/01/06 00:37:35;;;;;;;16.27;10.05;;;;;;;;;;4934059;29;20627;-77
2021/01/06 00:40:02;;;;;;;17.25;9.90;;;;;;;;;;4934357;29;20210;-76
2021/01/06 00:42:29;;;;;;;17.42;9.38;;;;;;;;;;4931982;29;20222;-77
2021/01/06 00:44:56;;;;;;;15.27;10.48;;;;;;;;;;4928838;29;20238;-76
2021/01/06 00:47:23;;;;;;;17.48;10.18;;;;;;;;;;4931267;29;20550;-76
2021/01/06 00:49:49;;;;;;;17.17;9.13;;;;;;;;;;4932149;29;20616;-77
2021/01/06 00:52:17;;;;;;;15.77;9.20;;;;;;;;;;4932033;29;20223;-78
2021/01/06 00:54:46;;;;;;;18.08;9.55;;;;;;;;;;4931923;29;20294;-76
2021/01/06 00:57:13;;;;;;;15.13;9.32;;;;;;;;;;4934123;29;20211;-76
2021/01/06 00:59:40;;;;;;;19.50;10.90;;;;;;;;;;4934257;29;20226;-76
2021/01/06 01:02:07;;;;;;;17.30;9.60;;;;;;;;;;4934137;29;20233;-77
2021/01/06 01:04:34;;;;;;;15.38;10.05;;;;;;;;;;4931399;29;20293;-76
2021/01/06 01:07:01;;;;;;;20.02;11.50;;;;;;;;;;4928445;29;20249;-77
2021/01/06 01:09:28;;;;;;;18.90;10.45;;;;;;;;;;4932954;29;20206;-76
2021/01/06 01:11:55;;;;;;;16.58;10.10;;;;;;;;;;4935977;29;20431;-76
2021/01/06 01:14:22;;;;;;;16.58;10.80;;;;;;;;;;4935743;29;20295;-77
2021/01/06 01:16:51;;;;;;;15.50;9.80;;;;;;;;;;4935735;29;20199;-77
2021/01/06 01:19:18;;;;;;;15.82;9.80;;;;;;;;;;4937912;29;20332;-76
2021/01/06 01:21:45;;;;;;;16.55;9.82;;;;;;;;;;4937659;29;20226;-77
2021/01/06 01:24:12;;;;;;;18.20;10.40;;;;;;;;;;4937680;29;20371;-76
2021/01/06 01:26:40;;;;;;;17.95;9.82;;;;;;;;;;4935521;29;20210;-77
2021/01/06 01:29:06;;;;;;;20.70;10.80;;;;;;;;;;4931896;29;20199;-77
2021/01/06 01:31:34;;;;;;;17.20;10.43;;;;;;;;;;4934815;29;20257;-76
2021/01/06 01:34:01;;;;;;;17.58;10.18;;;;;;;;;;4935422;29;20291;-76
2021/01/06 01:36:28;;;;;;;21.15;11.65;;;;;;;;;;4918598;29;20242;-76
2021/01/06 01:38:55;;;;;;;20.85;11.30;;;;;;;;;;4934852;29;20210;-77
2021/01/06 01:41:23;;;;;;;17.58;9.98;;;;;;;;;;4937396;29;20253;-76
2021/01/06 01:43:51;;;;;;;21.15;11.90;;;;;;;;;;4937235;29;20243;-76
2021/01/06 01:46:33;;;;;;;17.25;10.75;;;;;;;;;;4937270;29;20201;-77
2021/01/06 01:49:01;;;;;;;17.73;11.20;;;;;;;;;;4919344;29;20191;-76
2021/01/06 01:51:32;;;;;;;17.80;9.93;;;;;;;;;;4931559;29;20682;-76
2021/01/06 01:54:03;;;;;;;19.58;11.77;;;;;;;;;;4934465;29;20668;-77
2021/01/06 01:56:36;;;;;;;18.42;10.60;;;;;;;;;;4918719;29;20195;-76
2021/01/06 01:59:06;;;;;;;16.08;10.50;;;;;;;;;;4918351;29;20195;-76
2021/01/06 02:01:33;;;;;;;12.63;8.80;;;;;;;;;;4935197;29;20214;-77
2021/01/06 02:04:02;;;;;;;24.92;11.23;;;;;;;;;;4936848;29;20634;-76
2021/01/06 02:06:32;;;;;;;18.35;11.27;;;;;;;;;;4937081;29;20289;-77
2021/01/06 02:09:02;;;;;;;18.00;9.90;;;;;;;;;;4937084;29;20257;-77
2021/01/06 02:11:33;;;;;;;15.43;9.13;;;;;;;;;;4916121;29;20206;-76
2021/01/06 02:14:05;;;;;;;17.55;11.93;;;;;;;;;;4915126;29;20195;-76
2021/01/06 02:16:35;;;;;;;19.15;11.60;;;;;;;;;;4934791;29;20206;-76
2021/01/06 02:19:02;;;;;;;15.82;10.13;;;;;;;;;;4934644;29;20198;-77
2021/01/06 02:21:30;;;;;;;17.30;9.23;;;;;;;;;;4933658;29;20253;-76
2021/01/06 02:23:57;;;;;;;15.02;9.85;;;;;;;;;;4935364;29;20301;-76
2021/01/06 02:26:25;;;;;;;16.00;10.38;;;;;;;;;;4936694;29;20202;-77
2021/01/06 02:28:52;;;;;;;16.83;9.23;;;;;;;;;;4936751;29;20198;-76
2021/01/06 02:31:19;;;;;;;14.95;9.60;;;;;;;;;;4936693;29;20695;-77
2021/01/06 02:33:46;;;;;;;13.25;9.18;;;;;;;;;;4932415;29;20276;-77
2021/01/06 02:36:14;;;;;;;16.80;9.75;;;;;;;;;;4931344;29;20198;-77
2021/01/06 02:38:42;;;;;;;13.57;8.45;;;;;;;;;;4934385;29;20556;-78
2021/01/06 02:41:09;;;;;;;12.40;7.53;;;;;;;;;;4934210;29;20209;-78
2021/01/06 02:43:36;;;;;;;14.45;8.88;;;;;;;;;;4934829;29;20636;-80
2021/01/06 02:46:03;;;;;;;9.73;7.30;;;;;;;;;;4934613;29;20223;-78
2021/01/06 02:48:30;;;;;;;12.95;8.23;;;;;;;;;;4936464;29;20555;-79
2021/01/06 02:50:59;;;;;;;12.07;7.53;;;;;;;;;;4936134;29;20210;-78
2021/01/06 02:53:29;;;;;;;10.82;6.93;;;;;;;;;;4936146;29;20313;-80
2021/01/06 02:55:57;;;;;;;9.48;6.75;;;;;;;;;;4931042;29;20199;-81
2021/01/06 02:58:24;;;;;;;10.23;6.63;;;;;;;;;;4931035;29;20720;-80
2021/01/06 03:00:51;;;;;;;10.35;6.43;;;;;;;;;;4933893;29;20203;-79
2021/01/06 03:03:19;;;;;;;9.05;6.32;;;;;;;;;;4933312;29;20238;-81
2021/01/06 03:05:48;;;;;;;11.45;7.20;;;;;;;;;;4933577;29;20233;-80
2021/01/06 03:08:17;;;;;;;11.25;7.50;;;;;;;;;;4934400;29;20204;-80
2021/01/06 03:10:44;;;;;;;12.85;7.63;;;;;;;;;;4935878;29;20294;-81
2021/01/06 03:13:12;;;;;;;15.35;8.07;;;;;;;;;;4935792;29;20240;-81
2021/01/06 03:15:39;;;;;;;13.02;8.10;;;;;;;;;;4935825;29;20293;-79
2021/01/06 03:18:06;;;;;;;11.65;8.05;;;;;;;;;;4930691;29;20203;-79
2021/01/06 03:20:34;;;;;;;11.32;8.00;;;;;;;;;;4930770;29;20751;-80
2021/01/06 03:23:03;;;;;;;12.80;7.55;;;;;;;;;;4933210;29;20219;-81
2021/01/06 03:25:30;;;;;;;13.80;8.93;;;;;;;;;;4916176;29;20696;-79
2021/01/06 03:27:58;;;;;;;13.02;8.80;;;;;;;;;;4933537;29;20557;-79
2021/01/06 03:30:27;;;;;;;13.65;9.05;;;;;;;;;;4934501;29;20207;-80
2021/01/06 03:33:00;;;;;;;14.13;8.00;;;;;;;;;;4918288;29;20223;-82
2021/01/06 03:35:29;;;;;;;17.10;10.13;;;;;;;;;;4935326;29;20270;-81
2021/01/06 03:38:00;;;;;;;14.30;9.38;;;;;;;;;;4935637;29;20283;-80
2021/01/06 03:40:28;;;;;;;13.20;8.00;;;;;;;;;;4929710;29;20211;-81
2021/01/06 03:42:56;;;;;;;12.75;8.68;;;;;;;;;;4930993;29;20588;-79
2021/01/06 03:45:24;;;;;;;14.00;8.55;;;;;;;;;;4916085;29;20251;-79
2021/01/06 03:47:57;;;;;;;12.63;8.05;;;;;;;;;;4932510;29;20241;-82
2021/01/06 03:50:28;;;;;;;14.15;9.10;;;;;;;;;;4932673;29;20199;-80
2021/01/06 03:53:03;;;;;;;15.57;8.85;;;;;;;;;;4917865;29;20775;-82
2021/01/06 03:55:33;;;;;;;14.13;8.38;;;;;;;;;;4934929;29;20283;-80
2021/01/06 03:58:00;;;;;;;13.68;8.32;;;;;;;;;;4917910;29;20294;-79
2021/01/06 04:00:33;;;;;;;14.13;9.38;;;;;;;;;;4933669;29;20210;-80
2021/01/06 04:03:02;;;;;;;14.75;9.50;;;;;;;;;;4929401;29;20280;-80
2021/01/06 04:05:30;;;;;;;16.77;9.90;;;;;;;;;;4931564;29;20219;-82
2021/01/06 04:07:57;;;;;;;18.35;9.55;;;;;;;;;;4933112;29;20199;-80
2021/01/06 04:10:26;;;;;;;16.10;9.55;;;;;;;;;;4933147;29;20199;-80
2021/01/06 04:12:52;;;;;;;14.65;9.35;;;;;;;;;;4915353;29;20234;-82
2021/01/06 04:15:20;;;;;;;14.10;8.38;;;;;;;;;;4935068;29;20286;-82
2021/01/06 04:17:47;;;;;;;15.48;10.00;;;;;;;;;;4934880;29;20227;-80
2021/01/06 04:20:28;;;;;;;19.92;10.07;;;;;;;;;;4935940;29;20290;-81
2021/01/06 04:22:57;;;;;;;14.50;10.10;;;;;;;;;;4935454;29;20236;-80
2021/01/06 04:25:25;;;;;;;18.73;10.70;;;;;;;;;;4916271;29;21598;-79
2021/01/06 04:27:53;;;;;;;16.60;11.00;;;;;;;;;;4934118;29;20656;-81
2021/01/06 04:30:23;;;;;;;17.05;10.82;;;;;;;;;;4918254;29;20289;-81
2021/01/06 04:32:50;;;;;;;16.92;10.50;;;;;;;;;;4936346;29;20326;-79
2021/01/06 04:35:17;;;;;;;17.88;10.38;;;;;;;;;;4936129;29;20291;-79
2021/01/06 04:37:44;;;;;;;20.65;11.30;;;;;;;;;;4938779;29;20209;-82
2021/01/06 04:40:12;;;;;;;18.85;10.35;;;;;;;;;;4938006;29;20199;-80
2021/01/06 04:42:39;;;;;;;18.35;10.57;;;;;;;;;;4936250;29;20302;-80
2021/01/06 04:45:08;;;;;;;17.80;10.73;;;;;;;;;;4928553;29;20350;-80
2021/01/06 04:47:42;;;;;;;18.35;11.52;;;;;;;;;;4922944;29;20245;-81
2021/01/06 04:50:29;;;;;;;15.07;8.85;;;;;;;;;;4914709;29;20199;-78
2021/01/06 04:53:01;;;;;;;17.60;9.65;;;;;;;;;;4932070;29;20219;-79
2021/01/06 04:55:32;;;;;;;14.98;10.18;;;;;;;;;;4932361;29;20231;-79
2021/01/06 04:58:04;;;;;;;17.33;10.02;;;;;;;;;;4932441;29;20290;-80
2021/01/06 05:00:35;;;;;;;16.48;10.25;;;;;;;;;;4934248;29;20222;-81
2021/01/06 05:03:16;;;;;;;15.20;8.55;;;;;;;;;;4917159;29;20215;-80
2021/01/06 05:05:51;;;;;;;20.00;9.63;;;;;;;;;;4933260;29;20259;-80
2021/01/06 05:08:24;;;;;;;15.05;8.90;;;;;;;;;;4912332;29;20187;-80
2021/01/06 05:10:55;;;;;;;15.90;10.27;;;;;;;;;;4929571;29;20222;-81
2021/01/06 05:13:25;;;;;;;15.80;9.30;;;;;;;;;;4931619;29;20219;-79
2021/01/06 05:15:54;;;;;;;13.68;7.97;;;;;;;;;;4931771;29;20636;-80
2021/01/06 05:18:20;;;;;;;15.13;8.63;;;;;;;;;;4931625;29;20607;-81
2021/01/06 05:20:48;;;;;;;14.88;8.18;;;;;;;;;;4933434;29;20557;-80
2021/01/06 05:23:17;;;;;;;15.02;8.63;;;;;;;;;;4934040;29;20257;-82
2021/01/06 05:25:45;;;;;;;8.50;6.80;;;;;;;;;;4933791;29;20705;-81
2021/01/06 05:28:13;;;;;;;8.93;5.95;;;;;;;;;;4933776;29;20560;-81
2021/01/06 05:30:40;;;;;;;6.38;4.45;;;;;;;;;;4928171;29;20198;-81
2021/01/06 05:33:08;;;;;;;9.18;4.70;;;;;;;;;;4929701;29;20755;-81
2021/01/06 05:35:38;;;;;;;7.28;4.80;;;;;;;;;;4915221;29;20343;-81
2021/01/06 05:38:05;;;;;;;7.32;4.10;;;;;;;;;;4931604;29;20204;-81
2021/01/06 05:40:32;;;;;;;5.70;4.40;;;;;;;;;;4931037;29;20203;-81
2021/01/06 05:43:04;;;;;;;6.40;4.60;;;;;;;;;;4933345;29;20306;-80
2021/01/06 05:45:38;;;;;;;7.82;4.97;;;;;;;;;;4917276;29;20298;-80
2021/01/06 05:48:06;;;;;;;8.80;5.55;;;;;;;;;;4933790;29;20255;-80
2021/01/06 05:50:35;;;;;;;7.10;4.53;;;;;;;;;;4916182;29;20207;-80
2021/01/06 05:53:03;;;;;;;7.65;5.07;;;;;;;;;;4911145;29;20226;-80
2021/01/06 05:55:31;;;;;;;7.80;4.50;;;;;;;;;;4913245;29;20203;-79
2021/01/06 05:58:06;;;;;;;8.32;4.88;;;;;;;;;;4934805;29;20199;-79
2021/01/06 06:00:42;;;;;;;7.70;5.18;;;;;;;;;;4918319;29;20201;-78
2021/01/06 06:03:24;;;;;;;9.13;5.82;;;;;;;;;;4917561;29;20237;-79
2021/01/06 06:05:58;;;;;;;7.75;5.72;;;;;;;;;;4937089;29;20227;-79
2021/01/06 06:08:40;;;;;;;11.15;6.15;;;;;;;;;;4937108;29;20372;-78
2021/01/06 06:11:20;;;;;;;14.98;6.60;;;;;;;;;;4937097;29;20259;-79
2021/01/06 06:14:01;;;;;;;10.02;6.25;;;;;;;;;;4933309;29;20203;-78
2021/01/06 06:16:31;;;;;;;10.77;6.70;;;;;;;;;;4915310;29;20195;-78
2021/01/06 06:19:03;;;;;;;11.38;6.93;;;;;;;;;;4934562;29;20657;-78
2021/01/06 06:21:32;;;;;;;15.40;7.90;;;;;;;;;;4934840;29;20203;-79
2021/01/06 06:24:14;;;;;;;10.35;6.65;;;;;;;;;;4934417;29;20286;-79
2021/01/06 06:26:45;;;;;;;14.05;7.60;;;;;;;;;;4934380;29;20722;-79
2021/01/06 06:29:19;;;;;;;9.20;6.70;;;;;;;;;;4936913;29;20254;-79
2021/01/06 06:31:47;;;;;;;11.95;7.40;;;;;;;;;;4936959;29;20315;-79
2021/01/06 06:34:15;;;;;;;11.85;6.90;;;;;;;;;;4919912;29;20203;-80
2021/01/06 06:36:43;;;;;;;11.65;6.65;;;;;;;;;;4930932;29;20195;-79
2021/01/06 06:39:16;;;;;;;12.02;6.93;;;;;;;;;;4932185;29;20246;-78
2021/01/06 06:41:43;;;;;;;13.32;8.93;;;;;;;;;;4934016;29;20707;-80
2021/01/06 06:44:27;;;;;;;12.55;8.05;;;;;;;;;;4934134;29;20210;-79
2021/01/06 06:46:59;;;;;;;10.73;8.40;;;;;;;;;;4919282;29;20281;-79
2021/01/06 06:49:31;;;;;;;14.55;8.35;;;;;;;;;;4919842;29;20326;-80
2021/01/06 06:52:01;;;;;;;12.68;7.50;;;;;;;;;;4936314;29;20230;-78
2021/01/06 06:54:36;;;;;;;12.63;8.32;;;;;;;;;;4919590;29;20530;-80
2021/01/06 06:57:05;;;;;;;13.40;8.55;;;;;;;;;;4934540;29;20195;-78
2021/01/06 06:59:36;;;;;;;11.98;8.27;;;;;;;;;;4913449;29;20202;-78
2021/01/06 07:02:04;;;;;;;13.65;8.45;;;;;;;;;;4932455;29;20215;-78
2021/01/06 07:04:36;;;;;;;9.80;7.30;;;;;;;;;;4916391;29;20277;-79
2021/01/06 07:07:04;;;;;;;14.43;8.52;;;;;;;;;;4933097;29;20254;-79
2021/01/06 07:09:32;;;;;;;15.10;8.30;;;;;;;;;;4916432;29;20207;-78
2021/01/06 07:12:01;;;;;;;12.90;8.45;;;;;;;;;;4914116;29;20651;-78
2021/01/06 07:14:29;;;;;;;13.25;9.30;;;;;;;;;;4911420;29;20199;-79
2021/01/06 07:16:58;;;;;;;13.68;8.25;;;;;;;;;;4914717;29;20206;-76
2021/01/06 07:19:31;;;;;;;12.05;8.63;;;;;;;;;;4914400;29;20204;-78
2021/01/06 07:22:02;;;;;;;14.30;9.32;;;;;;;;;;4914878;29;20243;-78
2021/01/06 07:24:29;;;;;;;15.20;9.93;;;;;;;;;;4926449;29;20751;-82
2021/01/06 07:26:58;;;;;;;18.63;9.90;;;;;;;;;;4916491;29;20202;-78
2021/01/06 07:29:31;;;;;;;21.02;14.35;;;;;;;;;;4916646;29;20196;-78
2021/01/06 07:32:01;;;;;;;15.70;11.18;;;;;;;;;;4916716;29;20226;-78
2021/01/06 07:34:37;;;;;;;19.48;11.85;;;;;;;;;;4928698;29;20210;-77
2021/01/06 07:37:05;;;;;;;17.17;10.57;;;;;;;;;;4930679;29;20203;-76
2021/01/06 07:39:35;;;;;;;17.98;11.88;;;;;;;;;;4927541;29;20839;-77
2021/01/06 07:42:03;;;;;;;17.77;11.15;;;;;;;;;;4914324;29;20691;-77
2021/01/06 07:44:32;;;;;;;15.02;10.32;;;;;;;;;;4896422;29;20227;-76
2021/01/06 07:47:06;;;;;;;15.48;10.20;;;;;;;;;;4928366;29;20652;-77
2021/01/06 07:49:39;;;;;;;12.40;9.35;;;;;;;;;;4934864;29;20226;-76
2021/01/06 07:52:07;;;;;;;17.63;10.52;;;;;;;;;;4935191;29;20760;-77
2021/01/06 07:54:37;;;;;;;13.55;9.85;;;;;;;;;;4930533;29;20188;-77
2021/01/06 07:57:07;;;;;;;23.55;13.88;;;;;;;;;;4926892;29;20450;-85
2021/01/06 07:59:39;;;;;;;19.00;11.10;;;;;;;;;;4930196;29;20192;-84
2021/01/06 08:02:10;;;;;;;20.15;10.85;;;;;;;;;;4931612;29;20227;-85
2021/01/06 08:04:39;;;;;;;15.38;10.40;;;;;;;;;;4914025;29;20218;-77
2021/01/06 08:07:07;;;;;;;16.35;9.27;;;;;;;;;;4913975;29;20209;-77
2021/01/06 08:09:37;;;;;;;17.83;10.40;;;;;;;;;;4932831;29;20636;-77
2021/01/06 08:12:13;;;;;;;17.10;11.88;;;;;;;;;;4934749;29;20318;-78
2021/01/06 08:14:40;;;;;;;20.05;11.20;;;;;;;;;;4934342;29;20294;-77
2021/01/06 08:17:13;;;;;;;16.13;10.35;;;;;;;;;;4917786;29;20257;-77
2021/01/06 08:19:43;;;;;;;17.58;12.10;;;;;;;;;;4927127;29;20221;-77
2021/01/06 08:22:16;;;;;;;18.95;11.73;;;;;;;;;;4929608;29;20529;-77
2021/01/06 08:24:45;;;;;;;21.20;11.75;;;;;;;;;;4918828;29;20286;-76
2021/01/06 08:27:14;;;;;;;15.77;10.45;;;;;;;;;;4912943;29;20560;-77
2021/01/06 08:29:41;;;;;;;17.30;10.52;;;;;;;;;;4897049;29;20199;-77
2021/01/06 08:32:24;;;;;;;18.63;10.77;;;;;;;;;;4931351;29;20223;-78
2021/01/06 08:34:57;;;;;;;16.17;9.85;;;;;;;;;;4920635;29;20227;-79
2021/01/06 08:37:25;;;;;;;18.63;11.98;;;;;;;;;;4921130;29;20285;-77
2021/01/06 08:39:53;;;;;;;17.35;11.55;;;;;;;;;;4934132;29;20195;-78
2021/01/06 08:42:21;;;;;;;16.38;10.35;;;;;;;;;;4911500;29;20218;-77
2021/01/06 08:44:49;;;;;;;15.85;10.40;;;;;;;;;;4925077;29;20753;-78
2021/01/06 08:47:28;;;;;;;15.68;10.55;;;;;;;;;;4918369;29;20755;-77
2021/01/06 08:49:56;;;;;;;21.00;13.27;;;;;;;;;;4934560;29;20285;-78
2021/01/06 08:52:25;;;;;;;17.30;11.38;;;;;;;;;;4936316;29;20302;-78
2021/01/06 08:55:00;;;;;;;22.45;12.70;;;;;;;;;;4935483;29;20566;-78
2021/01/06 08:57:30;;;;;;;20.42;13.18;;;;;;;;;;4934795;29;20266;-78
2021/01/06 08:59:57;;;;;;;22.98;14.55;;;;;;;;;;4934338;29;20563;-80
2021/01/06 09:02:29;;;;;;;23.92;14.57;;;;;;;;;;4933748;29;20591;-78
2021/01/06 09:04:56;;;;;;;23.92;14.80;;;;;;;;;;4930054;29;20235;-79
2021/01/06 09:07:24;;;;;;;25.15;15.15;;;;;;;;;;4929357;29;20393;-79
2021/01/06 09:10:06;;;;;;;22.48;13.40;;;;;;;;;;4924816;29;20286;-78
2021/01/06 09:12:38;;;;;;;21.85;13.93;;;;;;;;;;4898129;29;20326;-79
2021/01/06 09:15:05;;;;;;;24.90;15.25;;;;;;;;;;4914255;29;20330;-80
2021/01/06 09:17:37;;;;;;;24.75;15.77;;;;;;;;;;4905602;29;20279;-79
2021/01/06 09:20:07;;;;;;;26.90;15.82;;;;;;;;;;4898478;29;20290;-79
2021/01/06 09:22:33;;;;;;;22.52;14.35;;;;;;;;;;4914940;29;20306;-79
2021/01/06 09:25:00;;;;;;;24.15;13.48;;;;;;;;;;4914758;29;20660;-79
2021/01/06 09:27:31;;;;;;;25.42;14.00;;;;;;;;;;4922904;29;20241;-81
2021/01/06 09:29:59;;;;;;;37.97;16.25;;;;;;;;;;4929894;29;20294;-77
2021/01/06 09:32:27;;;;;;;26.95;15.65;;;;;;;;;;4911349;29;20597;-77
2021/01/06 09:34:56;;;;;;;29.35;17.25;;;;;;;;;;4916349;29;20206;-77
2021/01/06 09:37:25;;;;;;;26.67;15.60;;;;;;;;;;4916160;29;20283;-77
2021/01/06 09:39:52;;;;;;;27.85;15.23;;;;;;;;;;4930079;29;20257;-77
2021/01/06 09:42:20;;;;;;;28.42;15.40;;;4.00;99.90;;;;;;4920260;29;20634;-76
2021/01/06 09:44:48;;;;;;;26.35;15.77;;;;;;;;;;4920551;29;20274;-78
2021/01/06 09:47:23;;;;;;;27.13;15.88;;;4.00;99.90;;;;;;4936715;29;20245;-77
2021/01/06 09:49:56;;;;;;;29.08;16.95;;;4.00;99.90;;;;;;4917884;29;20203;-76
2021/01/06 09:52:28;;;;;;;25.27;14.93;;;4.00;99.90;;;;;;4931770;29;20334;-76
2021/01/06 09:54:55;;;;;;;22.25;13.60;;;;;;;;;;4934678;29;20339;-77
2021/01/06 09:57:22;;;;;;;28.67;15.45;;;;;;;;;;4934993;29;20289;-76
2021/01/06 09:59:52;;;;;;;27.33;15.30;;;4.00;99.90;;;;;;4907839;29;20569;-76
2021/01/06 10:02:21;;;;;;;24.95;15.25;;;;;;;;;;4925334;29;20229;-77
2021/01/06 10:04:49;;;;;;;30.63;17.40;;;;;;;;;;4900930;29;20220;-77
2021/01/06 10:07:31;;;;;;;29.90;17.33;;;4.00;99.90;;;;;;4918046;29;20416;-79
2021/01/06 10:10:03;;;;;;;29.63;17.85;;;4.00;99.90;;;;;;4918119;29;20563;-78
2021/01/06 10:12:41;;;;;;;31.38;16.75;;;;;;;;;;4925342;29;20305;-77
2021/01/06 10:15:18;;;;;;;31.00;16.55;;;;;;;;;;4914892;29;20203;-76
2021/01/06 10:17:55;;;;;;;32.25;18.35;;;4.00;99.90;;;;;;4932411;29;20261;-78
2021/01/06 10:20:24;;;;;;;31.27;16.75;;;;;;;;;;4934557;29;20278;-76
2021/01/06 10:22:54;;;;;;;28.70;16.30;;;4.00;99.90;;;;;;4934787;29;20880;-80
2021/01/06 10:25:33;;;;;;;27.67;15.82;;;4.10;99.90;;;;;;4918411;29;20338;-77
2021/01/06 10:28:05;;;;;;;26.50;16.33;;;4.10;99.90;;;;;;4936365;29;20735;-79
2021/01/06 10:30:33;;;;;;;28.23;16.70;;;4.20;99.90;;;;;;4936413;29;20679;-77
2021/01/06 10:33:13;;;;;;;23.58;14.90;;;4.20;99.90;;;;;;4918963;29;20221;-77
2021/01/06 10:35:43;;;;;;;32.70;16.98;;;4.30;99.90;;;;;;4915948;29;20202;-78
2021/01/06 10:38:23;;;;;;;28.60;16.08;;;4.30;99.90;;;;;;4914511;29;20187;-78
2021/01/06 10:40:51;;;;;;;29.95;16.33;;;4.30;99.90;;;;;;4934310;29;20203;-79
2021/01/06 10:43:35;;;;;;;26.60;14.38;;;4.30;99.90;;;;;;4916308;29;20309;-78
2021/01/06 10:46:23;;;;;;;27.40;15.25;;;4.30;99.90;;;;;;4934074;29;20223;-78
2021/01/06 10:48:51;;;;;;;24.77;13.80;;;4.30;99.90;;;;;;4896005;29;20290;-78
2021/01/06 10:51:47;;;;;;;24.95;13.55;;;4.30;99.90;;;;;;4936310;29;20676;-77
2021/01/06 10:54:19;;;;;;;29.75;17.40;;;4.30;99.90;;;;;;4920933;29;20212;-80
2021/01/06 10:56:47;;;;;;;27.83;14.55;;;4.20;99.90;;;;;;4928335;29;20331;-78
2021/01/06 10:59:15;;;;;;;27.65;14.70;;;4.20;99.90;;;;;;4930405;29;20254;-78
2021/01/06 11:02:08;;;;;;;27.38;14.23;;;4.20;99.90;;;;;;4932653;29;20376;-77
2021/01/06 11:04:46;;;;;;;24.35;14.48;;;4.20;99.90;;;;;;4933207;29;20635;-78
2021/01/06 11:07:25;;;;;;;22.63;13.77;;;4.30;99.90;;;;;;4933292;29;20614;-78
2021/01/06 11:10:16;;;;;;;26.33;14.63;;;4.20;99.90;;;;;;4934232;29;20293;-78
2021/01/06 11:13:01;;;;;;;25.13;14.40;;;4.20;99.90;;;;;;4918452;29;20306;-77
2021/01/06 11:15:35;;;;;;;26.63;15.02;;;;;;;;;;4935919;29;20285;-78
2021/01/06 11:18:14;;;;;;;25.27;13.82;;;4.20;99.90;;;;;;4935469;29;20208;-77
2021/01/06 11:20:45;;;;;;;25.13;14.75;;;4.20;99.90;;;;;;4932166;29;20564;-78
2021/01/06 11:23:39;;;;;;;23.92;14.75;;;4.20;99.90;;;;;;4926954;29;20251;-77
2021/01/06 11:26:35;;;;;;;23.90;13.63;;;4.10;99.90;;;;;;4929510;29;20242;-78
2021/01/06 11:29:12;;;;;;;23.30;13.90;;;4.10;99.90;;;;;;4914632;29;20205;-79
2021/01/06 11:31:40;;;;;;;24.75;13.10;;;4.20;99.90;;;;;;4928228;29;20215;-77
2021/01/06 11:34:27;;;;;;;22.40;13.98;;;4.20;99.90;;;;;;4909951;29;20656;-77
2021/01/06 11:36:56;;;;;;;23.42;13.70;;;4.20;99.90;;;;;;4896334;29;20212;-78
2021/01/06 11:39:44;;;;;;;23.42;14.05;;;4.10;99.90;;;;;;4912722;29;20257;-78
2021/01/06 11:42:12;;;;;;;26.35;13.40;;;4.20;99.90;;;;;;4897679;29;20432;-78
2021/01/06 11:44:47;;;;;;;20.50;13.65;;;4.20;99.90;;;;;;4912835;29;20202;-77
2021/01/06 11:47:30;;;;;;;21.08;12.05;;;4.10;99.90;;;;;;4930890;29;20206;-76
2021/01/06 11:50:02;;;;;;;22.30;13.50;;;4.10;99.90;;;;;;4918490;29;20192;-77
2021/01/06 11:52:47;;;;;;;25.38;13.52;;;4.10;99.90;;;;;;4912631;29;20220;-78
2021/01/06 11:55:43;;;;;;;23.63;12.60;;;4.10;99.90;;;;;;4900563;29;20202;-77
2021/01/06 11:58:29;;;;;;;20.35;12.55;;;4.00;99.90;;;;;;4910455;29;20577;-79
2021/01/06 12:01:19;;;;;;;17.58;11.65;;;4.00;99.90;;;;;;4909957;29;20233;-78
2021/01/06 12:04:01;;;;;;;18.65;12.45;;;4.00;99.90;;;;;;4913691;29;20226;-79
2021/01/06 12:06:44;;;;;;;20.45;12.25;;;4.00;99.90;;;;;;4913986;29;20763;-77
2021/01/06 12:09:31;;;;;;;18.67;12.15;;;4.00;99.90;;;;;;4929419;29;20203;-79
2021/01/06 12:12:07;;;;;;;23.30;13.40;;;4.00;99.90;;;;;;4929616;29;20720;-77
2021/01/06 12:14:43;;;;;;;22.42;13.55;;;4.00;99.90;;;;;;4914214;29;20211;-78
2021/01/06 12:17:23;;;;;;;25.30;15.45;;;4.10;99.90;;;;;;4913215;29;20343;-77
2021/01/06 12:19:57;;;;;;;21.55;13.65;;;4.00;99.90;;;;;;4909985;29;20207;-78
2021/01/06 12:22:24;;;;;;;23.83;14.48;;;4.10;99.90;;;;;;4928824;29;20265;-76
2021/01/06 12:24:55;;;;;;;22.23;14.27;;;4.00;99.90;;;;;;4903793;29;20196;-77
2021/01/06 12:27:34;;;;;;;20.00;13.35;;;4.00;99.90;;;;;;4915434;29;20205;-77
2021/01/06 12:30:04;;;;;;;22.80;13.27;;;4.10;99.90;;;;;;4914638;29;20230;-79
2021/01/06 12:32:37;;;;;;;22.38;14.35;;;4.00;99.90;;;;;;4917324;29;20227;-78
2021/01/06 12:35:22;;;;;;;23.80;14.35;;;4.00;99.90;;;;;;4916818;29;20611;-77
2021/01/06 12:37:59;;;;;;;24.10;14.25;;;4.00;99.90;;;;;;4931535;29;20201;-80
2021/01/06 12:40:27;;;;;;;22.73;13.27;;;4.00;99.90;;;;;;4931922;29;20285;-77
2021/01/06 12:42:58;;;;;;;27.92;17.13;;;4.00;99.90;;;;;;4928383;29;20772;-77
2021/01/06 12:45:29;;;;;;;28.17;16.98;;;4.00;99.90;;;;;;4906968;29;20285;-80
2021/01/06 12:48:03;;;;;;;26.08;15.35;;;4.00;99.90;;;;;;4931739;29;20621;-77
2021/01/06 12:50:38;;;;;;;29.08;17.40;;;4.00;99.90;;;;;;4913853;29;20318;-77
2021/01/06 12:53:15;;;;;;;38.35;19.02;;;4.00;99.90;;;;;;4932037;29;20584;-77
2021/01/06 12:55:52;;;;;;;31.98;18.63;;;3.90;99.90;;;;;;4929493;29;20199;-77
2021/01/06 12:58:24;;;;;;;33.83;19.00;;;3.90;99.90;;;;;;4929363;29;20683;-77
2021/01/06 13:01:01;;;;;;;42.38;19.75;;;3.90;99.90;;;;;;4907844;29;20595;-78
2021/01/06 13:03:35;;;;;;;29.60;18.77;;;3.90;99.90;;;;;;4896150;29;20227;-78
2021/01/06 13:06:13;;;;;;;30.52;18.23;;;3.90;99.90;;;;;;4901392;29;20234;-78
2021/01/06 13:08:50;;;;;;;34.15;20.00;;;3.90;99.90;;;;;;4921547;29;20294;-76
2021/01/06 13:11:27;;;;;;;40.50;18.77;;;3.90;99.90;;;;;;4915308;29;20265;-78
2021/01/06 13:14:13;;;;;;;34.00;19.00;;;3.90;99.90;;;;;;4937694;29;20699;-79
2021/01/06 13:16:50;;;;;;;37.55;21.30;;;3.90;99.90;;;;;;4939268;29;20293;-77
2021/01/06 13:19:27;;;;;;;41.70;21.02;;;3.80;99.90;;;;;;4934639;29;20202;-78
2021/01/06 13:22:16;;;;;;;29.95;17.55;;;3.90;99.90;;;;;;4919940;29;20289;-78
2021/01/06 13:24:46;;;;;;;35.70;21.05;;;3.90;99.90;;;;;;4920962;29;20727;-77
2021/01/06 13:27:40;;;;;;;36.50;20.35;;;3.90;99.90;;;;;;4919761;29;20223;-77
2021/01/06 13:30:18;;;;;;;37.58;20.30;;;3.80;99.90;;;;;;4918704;29;20210;-80
2021/01/06 13:32:52;;;;;;;36.55;21.58;;;3.80;99.90;;;;;;4923230;29;20312;-78
2021/01/06 13:35:28;;;;;;;29.95;18.30;;;3.80;99.90;;;;;;4906402;29;20211;-77
2021/01/06 13:38:07;;;;;;;32.55;19.08;;;3.80;99.90;;;;;;4936117;29;20192;-77
2021/01/06 13:40:36;;;;;;;30.42;18.42;;;3.80;99.90;;;;;;4936378;29;20293;-78
2021/01/06 13:43:07;;;;;;;30.00;18.35;;;3.90;99.90;;;;;;4918484;29;20266;-78
2021/01/06 13:45:49;;;;;;;34.22;19.60;;;3.80;99.90;;;;;;4911179;29;20226;-78
2021/01/06 13:48:46;;;;;;;32.90;18.98;;;3.90;99.90;;;;;;4918959;29;20196;-77
2021/01/06 13:51:19;;;;;;;30.80;17.02;;;3.80;99.90;;;;;;4904945;29;20206;-77
2021/01/06 13:53:52;;;;;;;30.15;18.05;;;3.90;99.90;;;;;;4939216;29;20668;-78
2021/01/06 13:56:24;;;;;;;28.23;17.00;;;3.90;99.90;;;;;;4928864;29;20717;-78
2021/01/06 13:59:02;;;;;;;32.17;17.40;;;3.90;99.90;;;;;;4904195;29;20286;-77
2021/01/06 14:01:38;;;;;;;32.20;19.25;;;3.80;99.90;;;;;;4929546;29;20205;-78
2021/01/06 14:04:07;;;;;;;32.45;19.77;;;3.70;99.90;;;;;;4916883;29;20226;-76
2021/01/06 14:06:50;;;;;;;35.47;20.52;;;3.70;99.90;;;;;;4917766;29;20231;-78
2021/01/06 14:09:31;;;;;;;35.50;21.35;;;3.70;99.90;;;;;;4920288;29;20198;-77
2021/01/06 14:12:10;;;;;;;36.38;22.95;;;3.70;99.90;;;;;;4905208;29;20278;-78
2021/01/06 14:14:46;;;;;;;37.95;21.23;;;3.70;99.90;;;;;;4924128;29;20261;-77
2021/01/06 14:17:37;;;;;;;32.53;20.20;;;3.70;99.90;;;;;;4931005;29;20198;-77